Time;durP1;ratioP1;P1;durP2;ratioP2;P2;SDS_P1;SDS_P2;PMS_P1;PMS_P2;Temp;Humidity;BMP_temperature;BMP_pressure;BME280_temperature;BME280_humidity;BME280_pressure;Samples;Min_cycle;Max_cycle;Signal;HPM_P1;HPM_P2
2021/06/21 00:00:57;;;;;;;14.52;5.15;;;25.70;84.20;;;;;;5099325;28;20036;-76
2021/06/21 00:03:23;;;;;;;12.05;4.88;;;25.60;84.90;;;;;;5114693;28;20023;-76
2021/06/21 00:05:49;;;;;;;13.73;4.38;;;25.60;84.30;;;;;;5114837;28;20505;-76
2021/06/21 00:08:16;;;;;;;20.08;5.07;;;25.60;84.30;;;;;;5105092;28;20489;-76
2021/06/21 00:10:42;;;;;;;13.50;4.00;;;25.60;84.30;;;;;;5076721;28;20039;-76
2021/06/21 00:13:08;;;;;;;14.80;4.63;;;25.50;84.10;;;;;;5114314;28;20027;-76
2021/06/21 00:15:34;;;;;;;14.00;4.53;;;25.50;84.10;;;;;;5113790;28;20023;-76
2021/06/21 00:17:59;;;;;;;10.05;4.53;;;25.50;84.50;;;;;;5114497;28;20020;-76
2021/06/21 00:20:26;;;;;;;23.35;4.93;;;25.50;84.50;;;;;;5114426;28;20481;-76
2021/06/21 00:22:54;;;;;;;19.02;5.35;;;25.50;84.50;;;;;;5114274;28;20449;-76
2021/06/21 00:25:21;;;;;;;12.52;3.90;;;25.50;84.50;;;;;;5114021;28;20496;-76
2021/06/21 00:27:47;;;;;;;23.27;3.88;;;25.50;84.60;;;;;;5100047;28;20016;-76
2021/06/21 00:30:15;;;;;;;22.80;5.47;;;25.40;84.80;;;;;;5077043;28;20129;-76
2021/06/21 00:32:43;;;;;;;15.68;4.22;;;25.40;85.20;;;;;;5092396;28;20039;-76
2021/06/21 00:35:10;;;;;;;15.52;5.20;;;25.40;85.40;;;;;;5096820;28;20015;-76
2021/06/21 00:37:36;;;;;;;13.30;4.75;;;25.30;85.70;;;;;;5114288;28;20024;-76
2021/06/21 00:40:04;;;;;;;19.15;4.03;;;25.30;86.10;;;;;;5114140;28;20032;-76
2021/06/21 00:42:30;;;;;;;23.50;4.72;;;25.30;86.10;;;;;;5113451;28;20069;-76
2021/06/21 00:44:55;;;;;;;11.10;4.70;;;25.30;86.20;;;;;;5114064;28;20023;-76
2021/06/21 00:47:21;;;;;;;14.00;4.10;;;25.30;86.30;;;;;;5114131;28;20031;-76
2021/06/21 00:49:47;;;;;;;14.82;4.50;;;25.30;86.40;;;;;;5113909;28;20031;-76
2021/06/21 00:52:17;;;;;;;13.30;4.53;;;25.20;86.70;;;;;;5095464;28;20024;-76
2021/06/21 00:54:44;;;;;;;12.10;5.13;;;25.20;86.90;;;;;;5095128;28;20028;-76
2021/06/21 00:57:11;;;;;;;13.35;4.05;;;25.20;87.00;;;;;;5113907;28;20044;-76
2021/06/21 00:59:37;;;;;;;12.05;4.28;;;25.20;86.90;;;;;;5090869;28;20020;-76
2021/06/21 01:02:03;;;;;;;20.15;4.70;;;25.10;87.20;;;;;;5093319;28;20541;-76
2021/06/21 01:04:29;;;;;;;9.30;4.03;;;25.10;87.60;;;;;;5093218;28;20028;-76
2021/06/21 01:06:55;;;;;;;17.73;5.25;;;25.10;87.80;;;;;;5093543;28;20028;-76
2021/06/21 01:09:21;;;;;;;15.52;5.45;;;25.00;87.80;;;;;;5075201;28;20028;-76
2021/06/21 01:12:27;;;;;;;19.90;4.72;;;25.00;88.10;;;;;;5103246;28;20109;-76
2021/06/21 01:15:01;;;;;;;17.13;4.93;;;25.00;88.10;;;;;;5030180;28;20400;-77
2021/06/21 01:18:04;;;;;;;18.15;5.25;;;25.00;88.10;;;;;;5030487;28;20044;-77
2021/06/21 01:20:44;;;;;;;9.88;4.43;;;25.00;88.30;;;;;;5061042;28;20032;-76
2021/06/21 01:23:31;;;;;;;16.83;4.75;;;25.00;88.30;;;;;;5092915;28;20029;-76
2021/06/21 01:26:36;;;;;;;16.52;5.10;;;25.00;88.30;;;;;;5092773;28;20056;-76
2021/06/21 01:29:08;;;;;;;14.48;5.15;;;25.00;88.30;;;;;;5074796;28;20070;-76
2021/06/21 01:31:54;;;;;;;10.63;4.63;;;25.00;88.20;;;;;;5092991;28;20020;-76
2021/06/21 01:34:25;;;;;;;14.02;4.53;;;24.90;88.50;;;;;;5107043;28;20026;-76
2021/06/21 01:36:54;;;;;;;14.63;4.20;;;24.90;88.70;;;;;;5113045;28;20562;-76
2021/06/21 01:39:20;;;;;;;11.88;5.15;;;24.90;88.80;;;;;;5113174;28;20111;-76
2021/06/21 01:41:51;;;;;;;12.90;4.60;;;24.90;88.90;;;;;;5113253;28;20030;-75
2021/06/21 01:44:20;;;;;;;12.85;5.30;;;24.90;89.00;;;;;;5113444;28;20081;-76
2021/06/21 01:46:49;;;;;;;19.88;4.40;;;24.90;89.20;;;;;;5113598;28;20627;-76
2021/06/21 01:49:20;;;;;;;21.42;5.20;;;24.90;89.30;;;;;;5112538;28;20027;-76
2021/06/21 01:51:46;;;;;;;15.07;4.70;;;24.90;89.30;;;;;;5094495;28;20111;-76
2021/06/21 01:54:14;;;;;;;22.17;5.68;;;24.90;89.40;;;;;;5112277;28;20521;-76
2021/06/21 01:56:46;;;;;;;13.13;4.25;;;24.90;89.50;;;;;;5094286;28;20116;-75
2021/06/21 01:59:14;;;;;;;20.00;4.65;;;24.90;89.50;;;;;;5112534;28;20023;-76
2021/06/21 02:01:43;;;;;;;18.55;5.05;;;24.90;89.60;;;;;;5112436;28;20020;-76
2021/06/21 02:04:09;;;;;;;18.27;4.47;;;24.90;89.70;;;;;;5112578;28;20110;-75
2021/06/21 02:06:36;;;;;;;15.23;4.40;;;24.90;89.70;;;;;;5112384;28;20023;-76
2021/06/21 02:09:06;;;;;;;13.40;4.65;;;24.90;89.60;;;;;;5094102;28;20110;-76
2021/06/21 02:11:32;;;;;;;8.23;4.25;;;25.00;89.70;;;;;;5112308;28;20446;-75
2021/06/21 02:14:00;;;;;;;8.35;4.72;;;25.00;89.70;;;;;;5112342;28;20370;-75
2021/06/21 02:16:27;;;;;;;10.60;4.32;;;25.00;90.00;;;;;;5111598;28;20024;-76
2021/06/21 02:18:54;;;;;;;12.02;4.60;;;25.00;90.00;;;;;;5112940;28;20072;-75
2021/06/21 02:21:21;;;;;;;20.80;4.40;;;24.90;90.10;;;;;;5112953;28;20031;-75
2021/06/21 02:23:48;;;;;;;17.83;4.68;;;24.90;90.10;;;;;;5112827;28;20023;-76
2021/06/21 02:26:18;;;;;;;19.17;4.57;;;24.90;90.10;;;;;;5108163;28;20065;-76
2021/06/21 02:28:44;;;;;;;13.80;5.13;;;24.90;90.10;;;;;;5112508;28;20627;-76
2021/06/21 02:31:11;;;;;;;20.55;4.95;;;25.00;90.20;;;;;;5112933;28;20096;-76
2021/06/21 02:33:36;;;;;;;8.77;4.25;;;24.90;90.30;;;;;;5112338;28;20020;-76
2021/06/21 02:36:04;;;;;;;12.45;4.25;;;24.90;90.40;;;;;;5111846;28;20117;-76
2021/06/21 02:38:30;;;;;;;12.90;5.47;;;24.90;90.50;;;;;;5113142;28;20027;-76
2021/06/21 02:40:56;;;;;;;13.43;4.15;;;24.80;90.60;;;;;;5098206;28;20039;-75
2021/06/21 02:43:22;;;;;;;18.98;5.70;;;24.80;90.70;;;;;;5116075;28;20023;-75
2021/06/21 02:45:48;;;;;;;19.38;4.82;;;24.80;90.80;;;;;;5115778;28;20084;-76
2021/06/21 02:48:14;;;;;;;10.82;4.43;;;24.80;90.80;;;;;;5116340;28;20024;-75
2021/06/21 02:50:46;;;;;;;9.15;4.70;;;24.80;90.90;;;;;;5097942;28;20533;-76
2021/06/21 02:53:20;;;;;;;;;;;24.80;91.10;;;;;;5097996;28;20023;-75
2021/06/21 02:56:09;;;;;;;9.65;4.28;;;24.70;91.20;;;;;;5096473;28;19994;-76
2021/06/21 02:58:39;;;;;;;13.48;4.50;;;24.70;91.40;;;;;;5097756;28;20051;-75
2021/06/21 03:01:09;;;;;;;14.80;4.90;;;24.70;91.40;;;;;;5097753;28;20055;-75
2021/06/21 03:03:38;;;;;;;9.95;4.10;;;24.70;91.50;;;;;;5115827;28;20121;-76
2021/06/21 03:06:05;;;;;;;10.45;4.32;;;24.70;91.50;;;;;;5115978;28;20035;-76
2021/06/21 03:08:32;;;;;;;16.67;5.00;;;24.80;91.40;;;;;;5115821;28;20062;-76
2021/06/21 03:10:59;;;;;;;14.30;4.85;;;24.80;91.50;;;;;;5116012;28;20027;-75
2021/06/21 03:13:26;;;;;;;13.10;4.55;;;24.80;91.60;;;;;;5115351;28;20031;-75
2021/06/21 03:15:55;;;;;;;16.77;4.78;;;24.80;91.50;;;;;;5097569;28;20470;-76
2021/06/21 03:18:21;;;;;;;16.40;5.00;;;24.80;91.60;;;;;;5115309;28;20027;-75
2021/06/21 03:20:52;;;;;;;15.95;5.40;;;24.70;91.70;;;;;;5115659;28;20072;-75
2021/06/21 03:23:24;;;;;;;14.93;4.65;;;24.80;91.80;;;;;;5097171;28;20030;-76
2021/06/21 03:25:53;;;;;;;9.48;4.38;;;24.80;91.80;;;;;;5115282;28;20028;-76
2021/06/21 03:28:20;;;;;;;17.50;5.32;;;24.80;91.90;;;;;;5115300;28;20372;-76
2021/06/21 03:30:50;;;;;;;9.45;5.15;;;24.80;92.00;;;;;;5115561;28;20077;-76
2021/06/21 03:33:16;;;;;;;10.93;4.18;;;24.80;91.90;;;;;;5097167;28;20163;-76
2021/06/21 03:35:42;;;;;;;14.07;5.07;;;24.80;91.90;;;;;;5115263;28;20023;-76
2021/06/21 03:38:19;;;;;;;18.67;5.05;;;24.80;92.00;;;;;;5115282;28;20504;-76
2021/06/21 03:40:46;;;;;;;21.90;5.47;;;24.70;92.00;;;;;;5114070;28;20027;-75
2021/06/21 03:43:17;;;;;;;16.02;5.00;;;24.80;92.20;;;;;;5096835;28;20019;-76
2021/06/21 03:45:43;;;;;;;13.05;5.20;;;24.70;92.20;;;;;;5115172;28;20053;-75
2021/06/21 03:48:09;;;;;;;10.88;4.95;;;24.70;92.30;;;;;;5115163;28;20086;-75
2021/06/21 03:50:36;;;;;;;10.63;4.60;;;24.70;92.30;;;;;;5113702;28;20389;-75
2021/06/21 03:53:03;;;;;;;16.00;5.38;;;24.70;92.50;;;;;;5096528;28;20099;-76
2021/06/21 03:55:28;;;;;;;13.70;5.05;;;24.70;92.50;;;;;;5115022;28;20020;-76
2021/06/21 03:57:55;;;;;;;15.05;5.47;;;24.70;92.40;;;;;;5115099;28;20077;-75
2021/06/21 04:00:24;;;;;;;15.88;5.32;;;24.70;92.60;;;;;;5114788;28;20024;-76
2021/06/21 04:02:50;;;;;;;18.17;5.70;;;24.70;92.60;;;;;;5114769;28;20083;-75
2021/06/21 04:05:17;;;;;;;16.65;4.93;;;24.60;92.70;;;;;;5096330;28;20051;-75
2021/06/21 04:07:43;;;;;;;15.73;5.57;;;24.60;92.70;;;;;;5114679;28;20044;-75
2021/06/21 04:10:12;;;;;;;9.98;4.68;;;24.60;92.90;;;;;;5096275;28;20031;-75
2021/06/21 04:12:39;;;;;;;11.23;4.28;;;24.70;92.90;;;;;;5114481;28;20027;-76
2021/06/21 04:15:11;;;;;;;16.92;4.78;;;24.70;92.90;;;;;;5096196;28;20027;-75
2021/06/21 04:17:38;;;;;;;24.48;5.68;;;24.70;93.00;;;;;;5114677;28;20016;-76
2021/06/21 04:20:15;;;;;;;18.00;5.20;;;24.70;93.20;;;;;;5114357;28;20028;-76
2021/06/21 04:22:41;;;;;;;13.30;5.03;;;24.70;93.20;;;;;;5114512;28;20031;-76
2021/06/21 04:25:08;;;;;;;7.22;5.13;;;24.70;93.20;;;;;;5114629;28;20027;-76
2021/06/21 04:27:35;;;;;;;19.08;5.07;;;24.70;93.10;;;;;;5114318;28;20095;-76
2021/06/21 04:30:02;;;;;;;12.52;5.07;;;24.70;93.00;;;;;;5114151;28;20040;-76
2021/06/21 04:32:28;;;;;;;16.23;5.05;;;24.80;93.00;;;;;;5113989;28;20027;-76
2021/06/21 04:34:54;;;;;;;21.15;5.35;;;24.80;93.10;;;;;;5112177;28;20398;-76
2021/06/21 04:37:20;;;;;;;15.73;4.57;;;24.80;93.10;;;;;;5090632;28;20020;-76
2021/06/21 04:39:45;;;;;;;20.10;5.25;;;24.90;93.00;;;;;;5114040;28;20030;-76
2021/06/21 04:42:11;;;;;;;20.60;4.82;;;24.90;93.10;;;;;;5114016;28;20098;-76
2021/06/21 04:44:37;;;;;;;12.02;4.93;;;24.90;93.10;;;;;;5113746;28;20539;-76
2021/06/21 04:47:03;;;;;;;28.50;5.70;;;24.90;93.20;;;;;;5113980;28;20051;-76
2021/06/21 04:49:29;;;;;;;16.27;5.10;;;25.00;93.10;;;;;;5114043;28;20028;-76
2021/06/21 04:51:55;;;;;;;10.10;4.28;;;25.00;93.10;;;;;;5095643;28;20016;-76
2021/06/21 04:54:21;;;;;;;18.15;4.93;;;25.00;93.00;;;;;;5095594;28;20020;-76
2021/06/21 04:56:47;;;;;;;11.40;4.95;;;25.10;93.10;;;;;;5113939;28;20027;-76
2021/06/21 04:59:13;;;;;;;23.90;5.47;;;25.10;93.20;;;;;;5113538;28;20500;-76
2021/06/21 05:01:39;;;;;;;12.60;4.80;;;25.10;93.20;;;;;;5107555;28;20031;-76
2021/06/21 05:04:05;;;;;;;11.18;4.85;;;25.10;93.10;;;;;;5104224;28;20016;-76
2021/06/21 05:06:35;;;;;;;22.70;5.05;;;25.20;93.20;;;;;;5110065;28;20058;-76
2021/06/21 05:09:03;;;;;;;18.90;5.55;;;25.20;93.20;;;;;;5095205;28;20030;-76
2021/06/21 05:11:29;;;;;;;13.15;4.45;;;25.20;93.20;;;;;;5095327;28;20560;-76
2021/06/21 05:13:55;;;;;;;13.32;4.90;;;25.20;93.20;;;;;;5113710;28;20030;-76
2021/06/21 05:16:21;;;;;;;14.32;4.75;;;25.20;93.20;;;;;;5113105;28;20631;-76
2021/06/21 05:18:47;;;;;;;9.55;4.40;;;25.30;93.10;;;;;;5106997;28;20024;-76
2021/06/21 05:21:12;;;;;;;9.23;4.53;;;25.30;93.00;;;;;;5092537;28;20466;-76
2021/06/21 05:23:38;;;;;;;14.77;3.92;;;25.30;92.90;;;;;;5107211;28;20030;-76
2021/06/21 05:26:04;;;;;;;20.73;4.93;;;25.30;93.10;;;;;;5112605;28;20054;-76
2021/06/21 05:28:30;;;;;;;16.77;5.50;;;25.30;93.00;;;;;;5112009;28;20047;-76
2021/06/21 05:30:56;;;;;;;19.33;6.00;;;25.30;93.00;;;;;;5112558;28;20088;-76
2021/06/21 05:33:21;;;;;;;17.45;5.22;;;25.30;93.90;;;;;;5112047;28;20023;-75
2021/06/21 05:35:47;;;;;;;9.15;4.70;;;25.30;93.90;;;;;;5112467;28;20381;-75
2021/06/21 05:38:13;;;;;;;11.35;4.95;;;25.30;94.20;;;;;;5113035;28;20047;-75
2021/06/21 05:40:38;;;;;;;14.55;4.95;;;25.40;94.30;;;;;;5113176;28;20028;-76
2021/06/21 05:43:04;;;;;;;20.60;5.30;;;25.40;94.10;;;;;;5113340;28;20485;-76
2021/06/21 05:45:30;;;;;;;19.60;5.75;;;25.40;94.00;;;;;;5113405;28;20031;-76
2021/06/21 05:47:56;;;;;;;16.02;5.07;;;25.50;93.90;;;;;;5113400;28;20020;-76
2021/06/21 05:50:22;;;;;;;16.35;5.30;;;25.50;93.70;;;;;;5094206;28;20111;-76
2021/06/21 05:52:52;;;;;;;14.25;4.93;;;25.50;93.50;;;;;;5113290;28;20019;-76
2021/06/21 05:55:18;;;;;;;13.02;4.68;;;25.60;93.60;;;;;;5113261;28;20020;-76
2021/06/21 05:57:45;;;;;;;19.25;4.93;;;25.60;93.70;;;;;;5095099;28;20051;-75
2021/06/21 06:00:11;;;;;;;18.77;4.68;;;25.60;93.80;;;;;;5113353;28;20409;-76
2021/06/21 06:02:37;;;;;;;9.82;4.75;;;25.70;93.70;;;;;;5110566;28;20058;-75
2021/06/21 06:05:04;;;;;;;14.98;5.30;;;25.80;94.00;;;;;;5092945;28;20073;-76
2021/06/21 06:07:29;;;;;;;14.88;4.65;;;25.90;94.10;;;;;;5101373;28;20023;-76
2021/06/21 06:09:57;;;;;;;12.07;4.70;;;26.00;94.30;;;;;;5113103;28;20043;-76
2021/06/21 06:12:23;;;;;;;13.80;4.90;;;26.00;94.50;;;;;;5113030;28;20481;-76
2021/06/21 06:14:49;;;;;;;17.10;5.68;;;26.10;94.20;;;;;;5115962;28;20020;-76
2021/06/21 06:17:15;;;;;;;21.33;5.53;;;26.20;94.60;;;;;;5117049;28;20027;-76
2021/06/21 06:19:41;;;;;;;19.40;5.07;;;26.20;94.30;;;;;;5107851;28;20024;-76
2021/06/21 06:22:06;;;;;;;15.73;4.93;;;26.30;94.70;;;;;;5096310;28;20028;-76
2021/06/21 06:24:33;;;;;;;19.80;5.55;;;26.30;93.40;;;;;;5096289;28;20112;-76
2021/06/21 06:26:59;;;;;;;18.98;5.40;;;26.30;92.10;;;;;;5096184;28;20028;-76
2021/06/21 06:29:29;;;;;;;15.88;5.15;;;26.40;92.00;;;;;;5095748;28;20501;-76
2021/06/21 06:31:54;;;;;;;16.17;5.43;;;26.50;92.00;;;;;;5077806;28;20085;-76
2021/06/21 06:34:22;;;;;;;16.40;5.32;;;26.50;91.20;;;;;;5102355;28;20008;-76
2021/06/21 06:36:48;;;;;;;19.02;5.88;;;26.50;90.90;;;;;;5079191;28;20020;-76
2021/06/21 06:39:14;;;;;;;16.90;5.60;;;26.60;90.90;;;;;;5096097;28;20426;-76
2021/06/21 06:41:40;;;;;;;14.00;5.53;;;26.60;90.50;;;;;;5105029;28;20062;-76
2021/06/21 06:44:06;;;;;;;19.70;6.07;;;26.70;90.50;;;;;;5097868;28;20012;-76
2021/06/21 06:46:33;;;;;;;15.15;5.22;;;26.70;90.00;;;;;;5116321;28;20020;-76
2021/06/21 06:48:59;;;;;;;11.85;5.43;;;26.70;90.10;;;;;;5116197;28;20047;-76
2021/06/21 06:51:28;;;;;;;17.38;5.28;;;26.70;90.40;;;;;;5097860;28;20020;-76
2021/06/21 06:54:05;;;;;;;16.15;6.47;;;26.70;90.60;;;;;;5097550;28;20072;-76
2021/06/21 06:59:16;;;;;;;21.92;5.63;;;26.80;90.80;;;;;;5116476;28;20542;-76
2021/06/21 07:01:43;;;;;;;18.83;6.22;;;26.80;90.70;;;;;;5105368;28;20160;-76
2021/06/21 07:04:09;;;;;;;20.05;6.05;;;26.80;90.90;;;;;;5100186;28;20042;-76
2021/06/21 07:06:35;;;;;;;19.27;6.57;;;26.90;91.30;;;;;;5101724;28;21324;-77
2021/06/21 07:09:01;;;;;;;12.80;6.43;;;26.90;90.60;;;;;;5082191;28;20027;-77
2021/06/21 07:11:27;;;;;;;22.50;6.65;;;26.90;90.60;;;;;;5106273;28;20065;-77
2021/06/21 07:13:53;;;;;;;21.25;6.90;;;27.00;90.50;;;;;;5107993;28;20020;-76
2021/06/21 07:16:18;;;;;;;18.75;6.25;;;27.10;90.00;;;;;;5101663;28;20008;-76
2021/06/21 07:18:45;;;;;;;28.30;6.75;;;27.00;90.30;;;;;;5107695;28;20110;-76
2021/06/21 07:21:10;;;;;;;15.70;6.78;;;27.00;90.20;;;;;;5106577;28;20035;-78
2021/06/21 07:23:39;;;;;;;20.95;7.60;;;27.00;90.40;;;;;;5087976;28;20023;-77
2021/06/21 07:26:06;;;;;;;30.38;7.75;;;27.10;90.90;;;;;;5100408;28;20396;-77
2021/06/21 07:28:33;;;;;;;18.00;7.72;;;27.10;90.60;;;;;;5083804;28;21689;-77
2021/06/21 07:30:59;;;;;;;19.55;6.78;;;27.20;90.80;;;;;;5104860;28;20024;-77
2021/06/21 07:33:25;;;;;;;25.45;6.97;;;27.20;90.90;;;;;;5100709;28;20028;-77
2021/06/21 07:35:51;;;;;;;20.20;7.82;;;27.20;90.60;;;;;;5094898;28;20030;-76
2021/06/21 07:38:20;;;;;;;11.63;7.15;;;27.20;90.60;;;;;;5103239;28;20028;-77
2021/06/21 07:40:45;;;;;;;26.67;7.63;;;27.20;90.30;;;;;;5096838;28;20069;-77
2021/06/21 07:43:11;;;;;;;16.77;7.95;;;27.30;91.00;;;;;;5104568;28;20603;-76
2021/06/21 07:45:37;;;;;;;21.98;8.93;;;27.30;90.60;;;;;;5106736;28;20055;-76
2021/06/21 07:48:04;;;;;;;20.17;7.85;;;27.30;90.60;;;;;;5106275;28;20520;-76
2021/06/21 07:50:31;;;;;;;15.57;7.60;;;27.30;90.60;;;;;;5106929;28;20028;-76
2021/06/21 07:52:58;;;;;;;17.05;8.07;;;27.30;90.80;;;;;;5080287;28;20386;-76
2021/06/21 07:55:28;;;;;;;18.50;7.60;;;27.40;91.10;;;;;;5087199;28;20103;-77
2021/06/21 07:57:57;;;;;;;19.90;7.40;;;27.40;90.60;;;;;;5087518;28;20485;-77
2021/06/21 08:00:24;;;;;;;21.80;8.63;;;27.50;89.90;;;;;;5106316;28;20034;-77
2021/06/21 08:02:54;;;;;;;17.42;7.78;;;27.50;89.80;;;;;;5100458;28;20032;-76
2021/06/21 08:05:21;;;;;;;12.38;6.70;;;27.50;89.30;;;;;;5106772;28;21357;-76
2021/06/21 08:07:47;;;;;;;19.75;8.00;;;27.60;90.00;;;;;;5105352;28;20023;-76
2021/06/21 08:10:14;;;;;;;17.42;6.80;;;27.60;89.20;;;;;;5109647;28;20024;-76
2021/06/21 08:12:41;;;;;;;18.55;6.70;;;27.60;89.70;;;;;;5102170;28;20027;-77
2021/06/21 08:15:09;;;;;;;18.23;7.78;;;27.70;89.00;;;;;;5084634;28;20028;-77
2021/06/21 08:17:35;;;;;;;12.98;7.53;;;27.70;88.80;;;;;;5105145;28;20504;-77
2021/06/21 08:20:01;;;;;;;18.25;6.60;;;27.70;88.10;;;;;;5109640;28;20023;-77
2021/06/21 08:22:26;;;;;;;24.73;7.32;;;27.80;88.30;;;;;;5102856;28;20039;-77
2021/06/21 08:24:52;;;;;;;12.68;6.25;;;27.80;87.30;;;;;;5100584;28;20493;-77
2021/06/21 08:27:19;;;;;;;13.50;5.55;;;27.90;86.60;;;;;;5102421;28;20032;-77
2021/06/21 08:29:45;;;;;;;15.82;5.88;;;28.00;85.50;;;;;;5081645;28;20093;-77
2021/06/21 08:32:11;;;;;;;13.85;6.35;;;27.90;85.10;;;;;;5097216;28;20016;-77
2021/06/21 08:34:44;;;;;;;17.27;5.43;;;28.00;85.00;;;;;;5109473;28;20024;-77
2021/06/21 08:37:10;;;;;;;12.02;5.50;;;28.00;85.20;;;;;;5098635;28;20557;-76
2021/06/21 08:39:38;;;;;;;16.15;6.15;;;28.10;85.50;;;;;;5106078;28;20502;-76
2021/06/21 08:42:06;;;;;;;23.55;6.28;;;28.10;85.40;;;;;;5107108;28;20358;-77
2021/06/21 08:44:54;;;;;;;10.05;5.47;;;28.10;84.80;;;;;;5081894;28;20031;-77
2021/06/21 08:47:22;;;;;;;21.77;6.32;;;28.00;83.90;;;;;;5075112;28;20032;-77
2021/06/21 08:49:49;;;;;;;17.02;6.18;;;28.00;83.60;;;;;;5101898;28;20024;-77
2021/06/21 08:52:16;;;;;;;18.42;6.68;;;28.10;84.10;;;;;;5099778;28;20024;-77
2021/06/21 08:54:43;;;;;;;17.42;5.97;;;28.00;82.40;;;;;;5084557;28;20016;-77
2021/06/21 08:57:09;;;;;;;13.30;5.50;;;28.20;84.20;;;;;;5108176;28;20118;-77
2021/06/21 08:59:36;;;;;;;17.25;6.03;;;28.20;83.50;;;;;;5092776;28;20099;-76
2021/06/21 09:02:02;;;;;;;18.30;5.95;;;28.20;81.80;;;;;;5104090;28;20628;-77
2021/06/21 09:04:28;;;;;;;22.95;6.95;;;28.20;82.10;;;;;;5090237;28;20034;-77
2021/06/21 09:07:14;;;;;;;15.52;5.63;;;28.20;81.80;;;;;;5082481;28;20381;-76
2021/06/21 09:09:39;;;;;;;12.85;5.20;;;28.20;80.30;;;;;;5101920;28;20023;-76
2021/06/21 09:12:12;;;;;;;19.80;5.03;;;28.30;78.40;;;;;;5102220;28;20020;-76
2021/06/21 09:14:39;;;;;;;17.02;5.50;;;28.30;80.60;;;;;;5104772;28;20060;-76
2021/06/21 09:17:10;;;;;;;23.33;4.60;;;28.20;76.30;;;;;;5104427;28;20021;-77
2021/06/21 09:20:01;;;;;;;19.88;4.18;;;28.20;75.50;;;;;;5083033;28;20039;-76
2021/06/21 09:22:37;;;;;;;17.73;4.85;;;28.30;76.80;;;;;;5089681;28;20027;-77
2021/06/21 09:25:05;;;;;;;16.55;4.90;;;28.50;79.10;;;;;;5099519;28;20030;-76
2021/06/21 09:27:31;;;;;;;18.77;4.97;;;28.60;78.60;;;;;;5102104;28;20027;-77
2021/06/21 09:30:03;;;;;;;24.63;5.47;;;28.60;78.40;;;;;;5098732;28;20040;-76
2021/06/21 09:32:47;;;;;;;11.95;4.82;;;28.60;77.40;;;;;;5108375;28;20056;-76
2021/06/21 09:35:32;;;;;;;20.17;5.32;;;28.70;75.80;;;;;;5085742;28;20466;-76
2021/06/21 09:38:04;;;;;;;17.50;4.78;;;28.80;79.40;;;;;;5108869;28;20032;-76
2021/06/21 09:40:34;;;;;;;;;;;28.70;75.40;;;;;;5099127;28;20016;-77
2021/06/21 09:43:17;;;;;;;17.52;4.50;;;28.60;74.60;;;;;;5082355;28;20322;-76
2021/06/21 09:46:01;;;;;;;20.15;4.70;;;28.70;75.10;;;;;;5098298;28;20465;-76
2021/06/21 09:48:36;;;;;;;20.50;4.53;;;28.70;74.50;;;;;;5112011;28;20103;-77
2021/06/21 09:51:23;;;;;;;18.10;4.55;;;28.80;75.30;;;;;;5101209;28;20027;-77
2021/06/21 09:54:03;;;;;;;24.92;4.95;;;28.90;74.30;;;;;;5111394;28;20027;-77
2021/06/21 09:56:33;;;;;;;22.95;5.20;;;29.00;73.10;;;;;;5113731;28;20031;-76
2021/06/21 09:58:59;;;;;;;20.92;5.15;;;29.00;73.00;;;;;;5097605;28;20043;-76
2021/06/21 10:01:30;;;;;;;20.42;5.35;;;28.90;73.80;;;;;;5108534;28;20099;-76
2021/06/21 10:03:56;;;;;;;18.27;5.97;;;29.00;74.00;;;;;;5085268;28;20472;-77
2021/06/21 10:06:22;;;;;;;23.60;4.63;;;28.90;73.30;;;;;;5109348;28;20027;-76
2021/06/21 10:08:52;;;;;;;28.27;5.28;;;29.00;74.70;;;;;;5112158;28;20031;-77
2021/06/21 10:11:37;;;;;;;21.10;4.85;;;29.10;74.50;;;;;;5100740;28;20032;-76
2021/06/21 10:14:05;;;;;;;26.88;5.60;;;29.30;75.40;;;;;;5103821;28;20028;-76
2021/06/21 10:16:32;;;;;;;19.50;5.03;;;29.20;75.20;;;;;;5082200;28;20058;-77
2021/06/21 10:18:58;;;;;;;26.95;5.28;;;29.30;73.70;;;;;;5106031;28;20035;-76
2021/06/21 10:21:28;;;;;;;18.52;4.15;;;29.40;70.90;;;;;;5103937;28;20024;-76
2021/06/21 10:23:55;;;;;;;20.17;4.43;;;29.40;69.80;;;;;;5111058;28;20097;-76
2021/06/21 10:26:21;;;;;;;24.95;4.82;;;29.40;70.20;;;;;;5104967;28;20712;-76
2021/06/21 10:28:49;;;;;;;24.63;4.80;;;29.50;71.10;;;;;;5113879;28;20043;-75
2021/06/21 10:31:16;;;;;;;17.27;4.35;;;29.60;70.70;;;;;;5103091;28;20031;-76
2021/06/21 10:33:43;;;;;;;16.27;4.07;;;29.60;72.00;;;;;;5097246;28;20027;-77
2021/06/21 10:36:09;;;;;;;23.40;4.47;;;29.90;72.60;;;;;;5099649;28;20053;-76
2021/06/21 10:38:35;;;;;;;25.25;5.15;;;30.00;68.30;;;;;;5098500;28;20024;-76
2021/06/21 10:41:07;;;;;;;17.83;4.40;;;30.10;67.60;;;;;;5110953;28;20043;-76
2021/06/21 10:43:47;;;;;;;22.15;5.40;;;30.10;66.30;;;;;;5111181;28;20024;-76
2021/06/21 10:46:24;;;;;;;29.33;5.20;;;30.10;68.30;;;;;;5083073;28;20023;-77
2021/06/21 10:49:11;;;;;;;18.02;4.68;;;30.20;68.30;;;;;;5104771;28;20432;-76
2021/06/21 10:51:38;;;;;;;19.75;5.40;;;30.20;68.30;;;;;;5110454;28;20020;-76
2021/06/21 10:54:07;;;;;;;21.52;4.82;;;30.30;66.00;;;;;;5105092;28;20465;-75
2021/06/21 10:56:50;;;;;;;15.75;4.25;;;30.20;66.00;;;;;;5110346;28;20030;-75
2021/06/21 10:59:18;;;;;;;23.90;4.75;;;30.20;67.10;;;;;;5097199;28;20016;-75
2021/06/21 11:01:49;;;;;;;14.38;4.25;;;30.40;66.80;;;;;;5099719;28;20024;-76
2021/06/21 11:04:38;;;;;;;;;;;30.40;67.40;;;;;;5107717;28;20505;-76
2021/06/21 11:07:22;;;;;;;18.75;4.13;;;30.50;67.00;;;;;;5108335;28;20633;-75
2021/06/21 11:09:55;;;;;;;25.90;5.35;;;30.50;67.90;;;;;;5085823;28;20063;-76
2021/06/21 11:12:21;;;;;;;20.52;5.22;;;30.70;69.10;;;;;;5101462;28;20046;-76
2021/06/21 11:15:14;;;;;;;15.85;3.92;;;30.90;68.40;;;;;;5108987;28;20060;-76
2021/06/21 11:17:45;;;;;;;23.23;5.30;;;30.90;65.80;;;;;;5084163;28;20034;-76
2021/06/21 11:20:36;;;;;;;22.80;4.80;;;31.00;66.00;;;;;;5095366;28;20027;-76
2021/06/21 11:23:05;;;;;;;19.38;4.68;;;31.00;63.40;;;;;;5107604;28;20038;-76
2021/06/21 11:25:42;;;;;;;19.70;4.60;;;31.10;64.00;;;;;;5103548;28;20092;-76
2021/06/21 11:28:34;;;;;;;20.50;5.93;;;31.10;63.80;;;;;;5093272;28;20051;-75
2021/06/21 11:31:18;;;;;;;;;;;31.20;64.20;;;;;;5093029;28;20489;-76
2021/06/21 11:33:54;;;;;;;25.10;5.00;;;31.20;64.30;;;;;;5103803;28;19904;-76
2021/06/21 11:36:44;;;;;;;30.75;5.32;;;31.30;64.90;;;;;;5084250;28;20028;-76
2021/06/21 11:39:22;;;;;;;25.15;5.82;;;31.30;64.30;;;;;;5083264;28;20032;-76
2021/06/21 11:42:00;;;;;;;25.77;5.03;;;31.20;64.80;;;;;;5102588;28;20028;-75
2021/06/21 11:44:38;;;;;;;16.65;5.00;;;31.40;65.10;;;;;;5103547;28;20482;-75
2021/06/21 11:47:24;;;;;;;11.55;4.78;;;31.40;65.20;;;;;;5094865;28;20051;-75
2021/06/21 11:49:53;;;;;;;16.73;4.50;;;31.70;66.90;;;;;;5091036;28;20489;-76
2021/06/21 11:52:21;;;;;;;19.85;5.38;;;31.70;64.70;;;;;;5104133;28;20035;-75
2021/06/21 11:54:49;;;;;;;24.30;5.40;;;32.00;67.40;;;;;;5098990;28;20587;-76
2021/06/21 11:57:17;;;;;;;20.33;4.45;;;32.20;65.70;;;;;;5081431;28;20023;-76
2021/06/21 11:59:46;;;;;;;17.00;4.30;;;32.00;62.40;;;;;;5078856;28;20032;-76
2021/06/21 12:02:14;;;;;;;25.42;4.20;;;31.90;65.10;;;;;;5106713;28;20032;-75
2021/06/21 12:04:42;;;;;;;16.77;3.72;;;31.80;64.70;;;;;;5101197;28;20026;-76
2021/06/21 12:07:09;;;;;;;17.83;4.00;;;31.70;61.60;;;;;;5107700;28;20016;-76
2021/06/21 12:09:55;;;;;;;19.63;4.85;;;31.50;61.40;;;;;;5103104;28;20090;-75
2021/06/21 12:12:25;;;;;;;13.93;4.30;;;31.50;62.90;;;;;;5102371;28;20128;-75
2021/06/21 12:14:51;;;;;;;21.38;4.57;;;31.80;64.10;;;;;;5079080;28;20020;-75
2021/06/21 12:17:22;;;;;;;21.75;4.45;;;32.00;63.30;;;;;;5098395;28;20022;-76
2021/06/21 12:20:15;;;;;;;15.07;3.95;;;32.20;61.50;;;;;;5078157;28;20110;-75
2021/06/21 12:22:51;;;;;;;18.80;4.15;;;32.30;59.70;;;;;;5092823;28;20046;-75
2021/06/21 12:25:33;;;;;;;27.27;4.80;;;32.50;60.60;;;;;;5095902;28;20032;-75
2021/06/21 12:28:19;;;;;;;16.90;4.47;;;32.60;60.10;;;;;;5104831;28;20024;-75
2021/06/21 12:31:04;;;;;;;16.58;4.50;;;32.90;59.80;;;;;;5098435;28;20032;-75
2021/06/21 12:33:41;;;;;;;17.88;4.70;;;33.00;61.20;;;;;;5106013;28;20062;-76
2021/06/21 12:36:14;;;;;;;25.10;5.05;;;33.20;58.60;;;;;;5077454;28;20043;-76
2021/06/21 12:38:45;;;;;;;21.58;4.55;;;33.20;57.20;;;;;;5078452;28;20055;-76
2021/06/21 12:41:12;;;;;;;18.58;4.32;;;33.10;57.90;;;;;;5085751;28;20019;-75
2021/06/21 12:43:38;;;;;;;11.75;3.53;;;33.20;57.80;;;;;;5082223;28;20028;-75
2021/06/21 12:46:16;;;;;;;26.60;5.13;;;33.30;59.00;;;;;;5096013;28;20489;-76
2021/06/21 12:48:45;;;;;;;14.60;4.78;;;33.30;57.00;;;;;;5103650;28;20031;-76
2021/06/21 12:51:14;;;;;;;14.10;5.03;;;33.20;56.70;;;;;;5097905;28;20094;-76
2021/06/21 12:53:50;;;;;;;19.77;4.05;;;33.30;55.50;;;;;;5107857;28;20115;-75